sensor_id;sensor_type;location;lat;lon;timestamp;P1;durP1;ratioP1;P2;durP2;ratioP2
67749;SDS011;54550;48.838;8.828;2023-08-12T00:00:09;6.40;;;4.97;;
67749;SDS011;54550;48.838;8.828;2023-08-12T00:02:39;5.13;;;4.60;;
67749;SDS011;54550;48.838;8.828;2023-08-12T00:05:08;5.00;;;4.50;;
67749;SDS011;54550;48.838;8.828;2023-08-12T00:07:37;5.90;;;5.13;;
67749;SDS011;54550;48.838;8.828;2023-08-12T00:10:04;7.80;;;4.13;;
67749;SDS011;54550;48.838;8.828;2023-08-12T00:12:33;10.40;;;5.70;;
67749;SDS011;54550;48.838;8.828;2023-08-12T00:15:00;6.50;;;5.03;;
67749;SDS011;54550;48.838;8.828;2023-08-12T00:17:26;8.87;;;5.80;;
67749;SDS011;54550;48.838;8.828;2023-08-12T00:19:52;6.00;;;5.00;;
67749;SDS011;54550;48.838;8.828;2023-08-12T00:22:17;6.73;;;5.57;;
67749;SDS011;54550;48.838;8.828;2023-08-12T00:24:43;6.53;;;4.87;;
67749;SDS011;54550;48.838;8.828;2023-08-12T00:27:09;7.70;;;6.27;;
67749;SDS011;54550;48.838;8.828;2023-08-12T00:29:35;8.53;;;4.37;;
67749;SDS011;54550;48.838;8.828;2023-08-12T00:32:01;5.83;;;5.23;;
67749;SDS011;54550;48.838;8.828;2023-08-12T00:34:27;7.63;;;4.90;;
67749;SDS011;54550;48.838;8.828;2023-08-12T00:36:52;6.00;;;4.60;;
67749;SDS011;54550;48.838;8.828;2023-08-12T00:39:18;5.53;;;4.63;;
67749;SDS011;54550;48.838;8.828;2023-08-12T00:41:43;16.17;;;7.83;;
67749;SDS011;54550;48.838;8.828;2023-08-12T00:44:09;20.03;;;7.80;;
67749;SDS011;54550;48.838;8.828;2023-08-12T00:46:35;9.63;;;6.57;;
67749;SDS011;54550;48.838;8.828;2023-08-12T00:49:02;13.40;;;7.53;;
67749;SDS011;54550;48.838;8.828;2023-08-12T00:51:29;9.50;;;6.60;;
67749;SDS011;54550;48.838;8.828;2023-08-12T00:53:55;10.00;;;5.70;;
67749;SDS011;54550;48.838;8.828;2023-08-12T00:56:23;9.17;;;6.63;;
67749;SDS011;54550;48.838;8.828;2023-08-12T00:58:48;7.37;;;6.10;;
67749;SDS011;54550;48.838;8.828;2023-08-12T01:01:14;10.80;;;5.60;;
67749;SDS011;54550;48.838;8.828;2023-08-12T01:03:42;11.73;;;5.93;;
67749;SDS011;54550;48.838;8.828;2023-08-12T01:06:08;8.80;;;5.57;;
67749;SDS011;54550;48.838;8.828;2023-08-12T01:08:33;7.23;;;5.60;;
67749;SDS011;54550;48.838;8.828;2023-08-12T01:11:10;7.13;;;5.00;;
67749;SDS011;54550;48.838;8.828;2023-08-12T01:16:14;9.80;;;5.83;;
67749;SDS011;54550;48.838;8.828;2023-08-12T01:18:42;6.33;;;5.07;;
67749;SDS011;54550;48.838;8.828;2023-08-12T01:21:10;6.83;;;5.90;;
67749;SDS011;54550;48.838;8.828;2023-08-12T01:23:40;7.30;;;4.13;;
67749;SDS011;54550;48.838;8.828;2023-08-12T01:26:06;8.00;;;5.47;;
67749;SDS011;54550;48.838;8.828;2023-08-12T01:28:32;5.63;;;4.93;;
67749;SDS011;54550;48.838;8.828;2023-08-12T01:30:59;6.30;;;4.60;;
67749;SDS011;54550;48.838;8.828;2023-08-12T01:33:39;5.17;;;3.97;;
67749;SDS011;54550;48.838;8.828;2023-08-12T01:36:27;9.40;;;4.40;;
67749;SDS011;54550;48.838;8.828;2023-08-12T01:38:56;7.43;;;4.37;;
67749;SDS011;54550;48.838;8.828;2023-08-12T01:41:24;7.50;;;4.47;;
67749;SDS011;54550;48.838;8.828;2023-08-12T01:43:51;6.93;;;4.50;;
67749;SDS011;54550;48.838;8.828;2023-08-12T01:46:17;5.10;;;4.53;;
67749;SDS011;54550;48.838;8.828;2023-08-12T01:48:42;8.00;;;4.80;;
67749;SDS011;54550;48.838;8.828;2023-08-12T01:51:08;15.37;;;4.67;;
67749;SDS011;54550;48.838;8.828;2023-08-12T01:53:33;7.57;;;4.70;;
67749;SDS011;54550;48.838;8.828;2023-08-12T01:55:59;10.23;;;4.47;;
67749;SDS011;54550;48.838;8.828;2023-08-12T01:58:25;7.27;;;4.60;;
67749;SDS011;54550;48.838;8.828;2023-08-12T02:00:51;5.37;;;4.20;;
67749;SDS011;54550;48.838;8.828;2023-08-12T02:03:17;5.80;;;4.30;;
67749;SDS011;54550;48.838;8.828;2023-08-12T02:05:43;6.17;;;4.10;;
67749;SDS011;54550;48.838;8.828;2023-08-12T02:08:08;6.30;;;4.93;;
67749;SDS011;54550;48.838;8.828;2023-08-12T02:10:34;4.90;;;4.40;;
67749;SDS011;54550;48.838;8.828;2023-08-12T02:13:00;5.93;;;4.13;;
67749;SDS011;54550;48.838;8.828;2023-08-12T02:15:26;9.73;;;5.30;;
67749;SDS011;54550;48.838;8.828;2023-08-12T02:17:52;5.67;;;3.70;;
67749;SDS011;54550;48.838;8.828;2023-08-12T02:20:17;5.80;;;4.67;;
67749;SDS011;54550;48.838;8.828;2023-08-12T02:22:43;9.40;;;4.37;;
67749;SDS011;54550;48.838;8.828;2023-08-12T02:25:09;6.93;;;4.60;;
67749;SDS011;54550;48.838;8.828;2023-08-12T02:27:34;6.20;;;4.03;;
67749;SDS011;54550;48.838;8.828;2023-08-12T02:30:00;7.10;;;4.63;;
67749;SDS011;54550;48.838;8.828;2023-08-12T02:32:25;6.80;;;3.83;;
67749;SDS011;54550;48.838;8.828;2023-08-12T02:34:51;5.67;;;4.10;;
67749;SDS011;54550;48.838;8.828;2023-08-12T02:37:16;6.20;;;4.10;;
67749;SDS011;54550;48.838;8.828;2023-08-12T02:39:42;6.63;;;4.10;;
67749;SDS011;54550;48.838;8.828;2023-08-12T02:42:07;8.13;;;4.50;;
67749;SDS011;54550;48.838;8.828;2023-08-12T02:44:33;6.43;;;4.27;;
67749;SDS011;54550;48.838;8.828;2023-08-12T02:46:59;19.20;;;4.10;;
67749;SDS011;54550;48.838;8.828;2023-08-12T02:49:24;6.17;;;3.90;;
67749;SDS011;54550;48.838;8.828;2023-08-12T02:51:50;8.10;;;4.17;;
67749;SDS011;54550;48.838;8.828;2023-08-12T02:54:15;4.83;;;3.53;;
67749;SDS011;54550;48.838;8.828;2023-08-12T02:56:41;4.20;;;3.40;;
67749;SDS011;54550;48.838;8.828;2023-08-12T02:59:06;4.50;;;4.10;;
67749;SDS011;54550;48.838;8.828;2023-08-12T03:01:32;7.40;;;4.60;;
67749;SDS011;54550;48.838;8.828;2023-08-12T03:03:57;6.90;;;4.67;;
67749;SDS011;54550;48.838;8.828;2023-08-12T03:06:23;8.30;;;4.07;;
67749;SDS011;54550;48.838;8.828;2023-08-12T03:08:48;6.07;;;4.37;;
67749;SDS011;54550;48.838;8.828;2023-08-12T03:11:14;4.63;;;3.43;;
67749;SDS011;54550;48.838;8.828;2023-08-12T03:13:40;4.70;;;3.10;;
67749;SDS011;54550;48.838;8.828;2023-08-12T03:16:10;4.90;;;3.63;;
67749;SDS011;54550;48.838;8.828;2023-08-12T03:18:38;6.47;;;3.60;;
67749;SDS011;54550;48.838;8.828;2023-08-12T03:21:07;7.77;;;4.00;;
67749;SDS011;54550;48.838;8.828;2023-08-12T03:23:34;4.10;;;3.60;;
67749;SDS011;54550;48.838;8.828;2023-08-12T03:26:00;12.20;;;4.00;;
67749;SDS011;54550;48.838;8.828;2023-08-12T03:28:26;4.83;;;3.40;;
67749;SDS011;54550;48.838;8.828;2023-08-12T03:30:52;4.87;;;3.33;;
67749;SDS011;54550;48.838;8.828;2023-08-12T03:33:18;4.50;;;3.90;;
67749;SDS011;54550;48.838;8.828;2023-08-12T03:35:47;8.07;;;3.70;;
67749;SDS011;54550;48.838;8.828;2023-08-12T03:38:13;5.20;;;3.67;;
67749;SDS011;54550;48.838;8.828;2023-08-12T03:40:40;5.17;;;3.40;;
67749;SDS011;54550;48.838;8.828;2023-08-12T03:43:06;14.50;;;3.77;;
67749;SDS011;54550;48.838;8.828;2023-08-12T03:45:33;7.93;;;3.33;;
67749;SDS011;54550;48.838;8.828;2023-08-12T03:48:08;4.73;;;3.47;;
67749;SDS011;54550;48.838;8.828;2023-08-12T03:50:35;3.40;;;2.90;;
67749;SDS011;54550;48.838;8.828;2023-08-12T03:53:04;3.83;;;3.43;;
67749;SDS011;54550;48.838;8.828;2023-08-12T03:55:30;4.30;;;3.30;;
67749;SDS011;54550;48.838;8.828;2023-08-12T03:57:57;6.30;;;3.30;;
67749;SDS011;54550;48.838;8.828;2023-08-12T04:00:23;4.40;;;3.80;;
67749;SDS011;54550;48.838;8.828;2023-08-12T04:02:49;5.50;;;3.53;;
67749;SDS011;54550;48.838;8.828;2023-08-12T04:05:14;3.30;;;3.00;;
67749;SDS011;54550;48.838;8.828;2023-08-12T04:07:40;3.63;;;3.30;;
67749;SDS011;54550;48.838;8.828;2023-08-12T04:10:06;7.00;;;4.03;;
67749;SDS011;54550;48.838;8.828;2023-08-12T04:12:32;5.00;;;3.00;;
67749;SDS011;54550;48.838;8.828;2023-08-12T04:14:57;4.90;;;4.33;;
67749;SDS011;54550;48.838;8.828;2023-08-12T04:17:23;6.77;;;3.80;;
67749;SDS011;54550;48.838;8.828;2023-08-12T04:19:48;5.07;;;3.90;;
67749;SDS011;54550;48.838;8.828;2023-08-12T04:22:14;5.90;;;3.67;;
67749;SDS011;54550;48.838;8.828;2023-08-12T04:24:40;3.97;;;3.63;;
67749;SDS011;54550;48.838;8.828;2023-08-12T04:27:05;7.40;;;3.00;;
67749;SDS011;54550;48.838;8.828;2023-08-12T04:29:31;4.90;;;3.73;;
67749;SDS011;54550;48.838;8.828;2023-08-12T04:31:56;3.43;;;3.07;;
67749;SDS011;54550;48.838;8.828;2023-08-12T04:34:22;4.80;;;3.57;;
67749;SDS011;54550;48.838;8.828;2023-08-12T04:36:47;7.10;;;3.07;;
67749;SDS011;54550;48.838;8.828;2023-08-12T04:39:13;7.47;;;3.03;;
67749;SDS011;54550;48.838;8.828;2023-08-12T04:41:39;4.53;;;3.90;;
67749;SDS011;54550;48.838;8.828;2023-08-12T04:44:05;4.60;;;3.63;;
67749;SDS011;54550;48.838;8.828;2023-08-12T04:46:30;3.40;;;3.10;;
67749;SDS011;54550;48.838;8.828;2023-08-12T04:48:57;5.30;;;3.30;;
67749;SDS011;54550;48.838;8.828;2023-08-12T04:51:22;4.90;;;3.30;;
67749;SDS011;54550;48.838;8.828;2023-08-12T04:53:48;4.67;;;3.70;;
67749;SDS011;54550;48.838;8.828;2023-08-12T04:56:13;7.07;;;3.97;;
67749;SDS011;54550;48.838;8.828;2023-08-12T04:58:39;4.80;;;3.13;;
67749;SDS011;54550;48.838;8.828;2023-08-12T05:01:04;9.40;;;4.47;;
67749;SDS011;54550;48.838;8.828;2023-08-12T05:03:30;6.50;;;4.30;;
67749;SDS011;54550;48.838;8.828;2023-08-12T05:05:55;5.10;;;4.60;;
67749;SDS011;54550;48.838;8.828;2023-08-12T05:08:21;5.03;;;4.40;;
67749;SDS011;54550;48.838;8.828;2023-08-12T05:10:47;6.17;;;4.47;;
67749;SDS011;54550;48.838;8.828;2023-08-12T05:13:13;5.33;;;3.57;;
67749;SDS011;54550;48.838;8.828;2023-08-12T05:15:39;4.23;;;3.27;;
67749;SDS011;54550;48.838;8.828;2023-08-12T05:18:05;4.47;;;3.80;;
67749;SDS011;54550;48.838;8.828;2023-08-12T05:20:31;5.77;;;4.20;;
67749;SDS011;54550;48.838;8.828;2023-08-12T05:22:56;3.93;;;3.50;;
67749;SDS011;54550;48.838;8.828;2023-08-12T05:25:22;5.60;;;3.90;;
67749;SDS011;54550;48.838;8.828;2023-08-12T05:27:48;4.63;;;3.47;;
67749;SDS011;54550;48.838;8.828;2023-08-12T05:30:14;5.80;;;4.07;;
67749;SDS011;54550;48.838;8.828;2023-08-12T05:32:40;4.70;;;3.73;;
67749;SDS011;54550;48.838;8.828;2023-08-12T05:35:05;4.20;;;3.80;;
67749;SDS011;54550;48.838;8.828;2023-08-12T05:37:31;9.47;;;5.00;;
67749;SDS011;54550;48.838;8.828;2023-08-12T05:39:57;4.90;;;4.40;;
67749;SDS011;54550;48.838;8.828;2023-08-12T05:42:22;6.50;;;5.27;;
67749;SDS011;54550;48.838;8.828;2023-08-12T05:44:48;10.87;;;4.83;;
67749;SDS011;54550;48.838;8.828;2023-08-12T05:47:13;9.33;;;5.70;;
67749;SDS011;54550;48.838;8.828;2023-08-12T05:49:39;7.90;;;4.70;;
67749;SDS011;54550;48.838;8.828;2023-08-12T05:52:05;6.80;;;5.10;;
67749;SDS011;54550;48.838;8.828;2023-08-12T05:54:30;11.77;;;6.10;;
67749;SDS011;54550;48.838;8.828;2023-08-12T05:56:56;5.67;;;4.73;;
67749;SDS011;54550;48.838;8.828;2023-08-12T05:59:21;7.00;;;5.13;;
67749;SDS011;54550;48.838;8.828;2023-08-12T06:01:47;10.93;;;5.20;;
67749;SDS011;54550;48.838;8.828;2023-08-12T06:04:12;6.10;;;4.70;;
67749;SDS011;54550;48.838;8.828;2023-08-12T06:06:38;6.83;;;5.93;;
67749;SDS011;54550;48.838;8.828;2023-08-12T06:09:04;5.23;;;4.73;;
67749;SDS011;54550;48.838;8.828;2023-08-12T06:11:29;7.23;;;5.90;;
67749;SDS011;54550;48.838;8.828;2023-08-12T06:13:55;8.20;;;4.50;;
67749;SDS011;54550;48.838;8.828;2023-08-12T06:16:20;5.57;;;5.03;;
67749;SDS011;54550;48.838;8.828;2023-08-12T06:18:46;6.33;;;5.10;;
67749;SDS011;54550;48.838;8.828;2023-08-12T06:21:12;4.20;;;3.80;;
67749;SDS011;54550;48.838;8.828;2023-08-12T06:23:37;5.33;;;4.80;;
67749;SDS011;54550;48.838;8.828;2023-08-12T06:26:03;5.13;;;3.30;;
67749;SDS011;54550;48.838;8.828;2023-08-12T06:28:28;6.90;;;5.00;;
67749;SDS011;54550;48.838;8.828;2023-08-12T06:30:54;18.63;;;4.57;;
67749;SDS011;54550;48.838;8.828;2023-08-12T06:33:20;6.77;;;4.67;;
67749;SDS011;54550;48.838;8.828;2023-08-12T06:35:46;4.50;;;4.10;;
67749;SDS011;54550;48.838;8.828;2023-08-12T06:38:11;6.03;;;3.43;;
67749;SDS011;54550;48.838;8.828;2023-08-12T06:40:38;5.80;;;4.60;;
67749;SDS011;54550;48.838;8.828;2023-08-12T06:43:04;5.10;;;4.10;;
67749;SDS011;54550;48.838;8.828;2023-08-12T06:45:29;5.90;;;4.17;;
67749;SDS011;54550;48.838;8.828;2023-08-12T06:47:55;4.30;;;3.00;;
67749;SDS011;54550;48.838;8.828;2023-08-12T06:50:20;5.23;;;4.00;;
67749;SDS011;54550;48.838;8.828;2023-08-12T06:52:46;6.23;;;3.87;;
67749;SDS011;54550;48.838;8.828;2023-08-12T06:55:11;4.07;;;3.60;;
67749;SDS011;54550;48.838;8.828;2023-08-12T06:57:37;7.43;;;4.20;;
67749;SDS011;54550;48.838;8.828;2023-08-12T07:00:03;4.00;;;3.10;;
67749;SDS011;54550;48.838;8.828;2023-08-12T07:02:30;5.30;;;4.00;;
67749;SDS011;54550;48.838;8.828;2023-08-12T07:04:55;4.27;;;3.60;;
67749;SDS011;54550;48.838;8.828;2023-08-12T07:07:21;2.73;;;2.33;;
67749;SDS011;54550;48.838;8.828;2023-08-12T07:09:47;6.10;;;3.20;;
67749;SDS011;54550;48.838;8.828;2023-08-12T07:12:12;3.67;;;3.20;;
67749;SDS011;54550;48.838;8.828;2023-08-12T07:14:38;3.17;;;2.63;;
67749;SDS011;54550;48.838;8.828;2023-08-12T07:17:03;4.83;;;3.27;;
67749;SDS011;54550;48.838;8.828;2023-08-12T07:19:29;16.90;;;3.97;;
67749;SDS011;54550;48.838;8.828;2023-08-12T07:21:55;5.40;;;2.73;;
67749;SDS011;54550;48.838;8.828;2023-08-12T07:24:20;6.83;;;2.77;;
67749;SDS011;54550;48.838;8.828;2023-08-12T07:26:46;2.93;;;2.63;;
67749;SDS011;54550;48.838;8.828;2023-08-12T07:29:11;3.30;;;3.00;;
67749;SDS011;54550;48.838;8.828;2023-08-12T07:31:37;5.30;;;3.30;;
67749;SDS011;54550;48.838;8.828;2023-08-12T07:36:34;3.33;;;3.03;;
67749;SDS011;54550;48.838;8.828;2023-08-12T07:39:00;3.27;;;2.57;;
67749;SDS011;54550;48.838;8.828;2023-08-12T07:41:26;3.20;;;2.37;;
67749;SDS011;54550;48.838;8.828;2023-08-12T07:43:53;8.40;;;3.10;;
67749;SDS011;54550;48.838;8.828;2023-08-12T07:49:05;5.83;;;2.63;;
67749;SDS011;54550;48.838;8.828;2023-08-12T07:51:31;5.30;;;2.70;;
67749;SDS011;54550;48.838;8.828;2023-08-12T07:53:57;5.40;;;2.70;;
67749;SDS011;54550;48.838;8.828;2023-08-12T07:56:22;6.23;;;2.70;;
67749;SDS011;54550;48.838;8.828;2023-08-12T08:36:47;3.93;;;2.60;;
67749;SDS011;54550;48.838;8.828;2023-08-12T08:39:13;3.10;;;2.07;;
67749;SDS011;54550;48.838;8.828;2023-08-12T08:41:39;4.27;;;2.47;;
67749;SDS011;54550;48.838;8.828;2023-08-12T08:44:08;2.60;;;2.40;;
67749;SDS011;54550;48.838;8.828;2023-08-12T08:46:34;5.17;;;2.57;;
67749;SDS011;54550;48.838;8.828;2023-08-12T08:49:00;2.40;;;2.20;;
67749;SDS011;54550;48.838;8.828;2023-08-12T08:51:27;5.90;;;2.70;;
67749;SDS011;54550;48.838;8.828;2023-08-12T08:53:59;6.27;;;2.63;;
67749;SDS011;54550;48.838;8.828;2023-08-12T08:56:26;6.60;;;3.03;;
67749;SDS011;54550;48.838;8.828;2023-08-12T08:58:53;3.10;;;2.40;;
67749;SDS011;54550;48.838;8.828;2023-08-12T09:01:19;4.23;;;2.60;;
67749;SDS011;54550;48.838;8.828;2023-08-12T09:03:47;4.47;;;3.00;;
67749;SDS011;54550;48.838;8.828;2023-08-12T09:06:15;3.37;;;2.43;;
67749;SDS011;54550;48.838;8.828;2023-08-12T09:08:45;3.37;;;2.33;;
67749;SDS011;54550;48.838;8.828;2023-08-12T09:11:13;2.50;;;2.30;;
67749;SDS011;54550;48.838;8.828;2023-08-12T09:13:39;2.90;;;2.60;;
67749;SDS011;54550;48.838;8.828;2023-08-12T09:16:05;3.90;;;2.67;;
67749;SDS011;54550;48.838;8.828;2023-08-12T09:18:30;7.43;;;2.90;;
67749;SDS011;54550;48.838;8.828;2023-08-12T09:20:56;2.57;;;2.37;;
67749;SDS011;54550;48.838;8.828;2023-08-12T09:23:22;3.47;;;2.67;;
67749;SDS011;54550;48.838;8.828;2023-08-12T09:25:48;3.13;;;2.33;;
67749;SDS011;54550;48.838;8.828;2023-08-12T09:28:13;4.40;;;2.90;;
67749;SDS011;54550;48.838;8.828;2023-08-12T09:30:39;5.20;;;3.30;;
67749;SDS011;54550;48.838;8.828;2023-08-12T09:33:06;5.80;;;3.10;;
67749;SDS011;54550;48.838;8.828;2023-08-12T09:35:34;5.90;;;2.80;;
67749;SDS011;54550;48.838;8.828;2023-08-12T09:38:02;5.43;;;3.57;;
67749;SDS011;54550;48.838;8.828;2023-08-12T09:40:28;3.97;;;2.83;;
67749;SDS011;54550;48.838;8.828;2023-08-12T09:42:55;16.53;;;2.77;;
67749;SDS011;54550;48.838;8.828;2023-08-12T09:45:23;3.13;;;2.83;;
67749;SDS011;54550;48.838;8.828;2023-08-12T09:47:49;4.23;;;2.73;;
67749;SDS011;54550;48.838;8.828;2023-08-12T09:50:16;3.23;;;2.93;;
67749;SDS011;54550;48.838;8.828;2023-08-12T09:52:41;4.10;;;2.90;;
67749;SDS011;54550;48.838;8.828;2023-08-12T09:55:07;3.60;;;3.17;;
67749;SDS011;54550;48.838;8.828;2023-08-12T09:57:35;4.50;;;2.73;;
67749;SDS011;54550;48.838;8.828;2023-08-12T10:00:04;5.30;;;2.63;;
67749;SDS011;54550;48.838;8.828;2023-08-12T10:02:36;3.00;;;2.40;;
67749;SDS011;54550;48.838;8.828;2023-08-12T10:05:03;4.37;;;2.53;;
67749;SDS011;54550;48.838;8.828;2023-08-12T10:07:29;2.40;;;2.13;;
67749;SDS011;54550;48.838;8.828;2023-08-12T10:09:56;5.53;;;2.20;;
67749;SDS011;54550;48.838;8.828;2023-08-12T10:12:22;4.60;;;2.30;;
67749;SDS011;54550;48.838;8.828;2023-08-12T10:14:48;3.10;;;2.23;;
67749;SDS011;54550;48.838;8.828;2023-08-12T10:17:13;7.03;;;2.13;;
67749;SDS011;54550;48.838;8.828;2023-08-12T10:19:43;3.07;;;2.67;;
67749;SDS011;54550;48.838;8.828;2023-08-12T10:22:09;3.13;;;2.80;;
67749;SDS011;54550;48.838;8.828;2023-08-12T10:24:35;4.37;;;2.57;;
67749;SDS011;54550;48.838;8.828;2023-08-12T10:27:02;5.43;;;3.47;;
67749;SDS011;54550;48.838;8.828;2023-08-12T10:29:29;13.13;;;3.77;;
67749;SDS011;54550;48.838;8.828;2023-08-12T10:31:55;5.30;;;2.80;;
67749;SDS011;54550;48.838;8.828;2023-08-12T10:34:22;4.17;;;2.47;;
67749;SDS011;54550;48.838;8.828;2023-08-12T10:36:53;7.93;;;3.40;;
67749;SDS011;54550;48.838;8.828;2023-08-12T10:39:22;5.70;;;3.00;;
67749;SDS011;54550;48.838;8.828;2023-08-12T10:41:51;5.93;;;3.27;;
67749;SDS011;54550;48.838;8.828;2023-08-12T10:44:20;2.47;;;2.27;;
67749;SDS011;54550;48.838;8.828;2023-08-12T10:46:50;5.73;;;3.10;;
67749;SDS011;54550;48.838;8.828;2023-08-12T10:49:18;10.40;;;3.03;;
67749;SDS011;54550;48.838;8.828;2023-08-12T10:51:49;6.90;;;3.00;;
67749;SDS011;54550;48.838;8.828;2023-08-12T10:54:23;4.00;;;2.77;;
67749;SDS011;54550;48.838;8.828;2023-08-12T10:59:46;4.43;;;2.70;;
67749;SDS011;54550;48.838;8.828;2023-08-12T11:04:43;3.17;;;2.80;;
67749;SDS011;54550;48.838;8.828;2023-08-12T11:07:17;3.73;;;3.13;;
67749;SDS011;54550;48.838;8.828;2023-08-12T11:09:43;8.10;;;3.13;;
67749;SDS011;54550;48.838;8.828;2023-08-12T11:12:10;7.73;;;3.10;;
67749;SDS011;54550;48.838;8.828;2023-08-12T11:14:53;4.30;;;2.93;;
67749;SDS011;54550;48.838;8.828;2023-08-12T11:17:19;10.00;;;3.70;;
67749;SDS011;54550;48.838;8.828;2023-08-12T11:19:52;5.00;;;2.90;;
67749;SDS011;54550;48.838;8.828;2023-08-12T11:22:17;6.60;;;3.63;;
67749;SDS011;54550;48.838;8.828;2023-08-12T11:24:43;4.23;;;3.00;;
67749;SDS011;54550;48.838;8.828;2023-08-12T11:27:09;5.63;;;3.20;;
67749;SDS011;54550;48.838;8.828;2023-08-12T11:29:36;10.13;;;3.20;;
67749;SDS011;54550;48.838;8.828;2023-08-12T11:32:03;10.47;;;3.53;;
67749;SDS011;54550;48.838;8.828;2023-08-12T11:34:29;7.83;;;3.37;;
67749;SDS011;54550;48.838;8.828;2023-08-12T11:36:56;7.53;;;3.50;;
67749;SDS011;54550;48.838;8.828;2023-08-12T11:39:22;5.10;;;3.40;;
67749;SDS011;54550;48.838;8.828;2023-08-12T11:41:48;6.93;;;3.50;;
67749;SDS011;54550;48.838;8.828;2023-08-12T11:44:21;5.70;;;2.80;;
67749;SDS011;54550;48.838;8.828;2023-08-12T11:46:47;6.20;;;3.20;;
67749;SDS011;54550;48.838;8.828;2023-08-12T11:49:13;6.93;;;3.20;;
67749;SDS011;54550;48.838;8.828;2023-08-12T11:51:39;8.83;;;3.20;;
67749;SDS011;54550;48.838;8.828;2023-08-12T11:54:05;4.53;;;2.70;;
67749;SDS011;54550;48.838;8.828;2023-08-12T11:56:31;5.37;;;3.30;;
67749;SDS011;54550;48.838;8.828;2023-08-12T11:58:57;6.23;;;2.50;;
67749;SDS011;54550;48.838;8.828;2023-08-12T12:01:22;4.93;;;3.03;;
67749;SDS011;54550;48.838;8.828;2023-08-12T12:03:51;4.27;;;3.17;;
67749;SDS011;54550;48.838;8.828;2023-08-12T12:06:17;4.00;;;2.90;;
67749;SDS011;54550;48.838;8.828;2023-08-12T12:08:46;6.80;;;2.93;;
67749;SDS011;54550;48.838;8.828;2023-08-12T12:11:13;5.30;;;2.23;;
67749;SDS011;54550;48.838;8.828;2023-08-12T12:13:39;12.70;;;3.63;;
67749;SDS011;54550;48.838;8.828;2023-08-12T12:16:09;3.60;;;2.60;;
67749;SDS011;54550;48.838;8.828;2023-08-12T12:18:35;2.70;;;2.37;;
67749;SDS011;54550;48.838;8.828;2023-08-12T12:21:01;4.70;;;3.20;;
67749;SDS011;54550;48.838;8.828;2023-08-12T12:23:27;6.83;;;3.07;;
67749;SDS011;54550;48.838;8.828;2023-08-12T12:25:58;4.47;;;3.40;;
67749;SDS011;54550;48.838;8.828;2023-08-12T12:28:27;7.23;;;3.13;;
67749;SDS011;54550;48.838;8.828;2023-08-12T12:30:53;3.80;;;2.30;;
67749;SDS011;54550;48.838;8.828;2023-08-12T12:33:19;5.20;;;3.83;;
67749;SDS011;54550;48.838;8.828;2023-08-12T12:35:44;8.50;;;3.07;;
67749;SDS011;54550;48.838;8.828;2023-08-12T12:38:10;14.17;;;4.03;;
67749;SDS011;54550;48.838;8.828;2023-08-12T12:40:36;5.57;;;3.50;;
67749;SDS011;54550;48.838;8.828;2023-08-12T12:43:03;6.07;;;3.60;;
67749;SDS011;54550;48.838;8.828;2023-08-12T12:45:28;6.97;;;2.70;;
67749;SDS011;54550;48.838;8.828;2023-08-12T12:47:54;4.13;;;2.27;;
67749;SDS011;54550;48.838;8.828;2023-08-12T12:50:20;5.20;;;3.00;;
67749;SDS011;54550;48.838;8.828;2023-08-12T12:52:45;3.90;;;2.47;;
67749;SDS011;54550;48.838;8.828;2023-08-12T12:55:11;3.40;;;1.93;;
67749;SDS011;54550;48.838;8.828;2023-08-12T12:57:36;3.23;;;2.10;;
67749;SDS011;54550;48.838;8.828;2023-08-12T13:00:02;4.30;;;2.30;;
67749;SDS011;54550;48.838;8.828;2023-08-12T13:02:29;7.93;;;2.43;;
67749;SDS011;54550;48.838;8.828;2023-08-12T13:04:54;3.20;;;2.20;;
67749;SDS011;54550;48.838;8.828;2023-08-12T13:07:20;4.63;;;1.93;;
67749;SDS011;54550;48.838;8.828;2023-08-12T13:09:46;4.10;;;1.83;;
67749;SDS011;54550;48.838;8.828;2023-08-12T13:12:12;8.23;;;1.70;;
67749;SDS011;54550;48.838;8.828;2023-08-12T13:14:37;3.27;;;1.80;;
67749;SDS011;54550;48.838;8.828;2023-08-12T13:17:03;3.57;;;2.10;;
67749;SDS011;54550;48.838;8.828;2023-08-12T13:19:28;3.07;;;1.63;;
67749;SDS011;54550;48.838;8.828;2023-08-12T13:21:54;6.03;;;2.33;;
67749;SDS011;54550;48.838;8.828;2023-08-12T13:24:19;4.30;;;1.80;;
67749;SDS011;54550;48.838;8.828;2023-08-12T13:26:45;3.93;;;1.90;;
67749;SDS011;54550;48.838;8.828;2023-08-12T13:29:11;5.37;;;2.30;;
67749;SDS011;54550;48.838;8.828;2023-08-12T13:31:38;10.50;;;1.70;;
67749;SDS011;54550;48.838;8.828;2023-08-12T13:34:05;8.10;;;2.60;;
67749;SDS011;54550;48.838;8.828;2023-08-12T13:36:30;3.83;;;2.30;;
67749;SDS011;54550;48.838;8.828;2023-08-12T13:38:56;7.07;;;2.20;;
67749;SDS011;54550;48.838;8.828;2023-08-12T13:41:21;4.07;;;2.13;;
67749;SDS011;54550;48.838;8.828;2023-08-12T13:43:47;2.20;;;2.00;;
67749;SDS011;54550;48.838;8.828;2023-08-12T13:46:12;2.77;;;1.90;;
67749;SDS011;54550;48.838;8.828;2023-08-12T13:48:39;4.10;;;2.30;;
67749;SDS011;54550;48.838;8.828;2023-08-12T13:51:06;5.37;;;2.23;;
67749;SDS011;54550;48.838;8.828;2023-08-12T13:53:32;6.80;;;2.43;;
67749;SDS011;54550;48.838;8.828;2023-08-12T13:55:58;4.37;;;2.30;;
67749;SDS011;54550;48.838;8.828;2023-08-12T13:58:23;5.10;;;2.13;;
67749;SDS011;54550;48.838;8.828;2023-08-12T14:00:49;4.37;;;2.43;;
67749;SDS011;54550;48.838;8.828;2023-08-12T14:03:14;6.33;;;3.17;;
67749;SDS011;54550;48.838;8.828;2023-08-12T14:05:40;5.07;;;2.63;;
67749;SDS011;54550;48.838;8.828;2023-08-12T14:08:06;2.60;;;2.10;;
67749;SDS011;54550;48.838;8.828;2023-08-12T14:10:32;8.03;;;3.10;;
67749;SDS011;54550;48.838;8.828;2023-08-12T14:12:57;9.87;;;2.77;;
67749;SDS011;54550;48.838;8.828;2023-08-12T14:15:23;2.63;;;2.20;;
67749;SDS011;54550;48.838;8.828;2023-08-12T14:17:48;2.93;;;1.80;;
67749;SDS011;54550;48.838;8.828;2023-08-12T14:20:14;6.13;;;2.73;;
67749;SDS011;54550;48.838;8.828;2023-08-12T14:22:40;6.63;;;2.80;;
67749;SDS011;54550;48.838;8.828;2023-08-12T14:25:06;4.07;;;2.70;;
67749;SDS011;54550;48.838;8.828;2023-08-12T14:27:32;4.93;;;2.90;;
67749;SDS011;54550;48.838;8.828;2023-08-12T14:29:58;3.47;;;2.13;;
67749;SDS011;54550;48.838;8.828;2023-08-12T14:32:23;8.60;;;2.80;;
67749;SDS011;54550;48.838;8.828;2023-08-12T14:34:49;5.63;;;3.10;;
67749;SDS011;54550;48.838;8.828;2023-08-12T14:37:14;9.10;;;2.90;;
67749;SDS011;54550;48.838;8.828;2023-08-12T14:39:40;10.00;;;3.00;;
67749;SDS011;54550;48.838;8.828;2023-08-12T14:42:06;6.63;;;2.63;;
67749;SDS011;54550;48.838;8.828;2023-08-12T14:44:33;6.33;;;3.00;;
67749;SDS011;54550;48.838;8.828;2023-08-12T14:47:00;4.97;;;2.63;;
67749;SDS011;54550;48.838;8.828;2023-08-12T14:49:26;5.97;;;2.80;;
67749;SDS011;54550;48.838;8.828;2023-08-12T14:51:51;13.13;;;3.07;;
67749;SDS011;54550;48.838;8.828;2023-08-12T14:54:19;4.37;;;2.80;;
67749;SDS011;54550;48.838;8.828;2023-08-12T14:56:44;5.17;;;2.70;;
67749;SDS011;54550;48.838;8.828;2023-08-12T14:59:10;5.23;;;2.73;;
67749;SDS011;54550;48.838;8.828;2023-08-12T15:01:37;3.70;;;2.70;;
67749;SDS011;54550;48.838;8.828;2023-08-12T15:04:02;5.03;;;2.37;;
67749;SDS011;54550;48.838;8.828;2023-08-12T15:06:28;4.57;;;2.73;;
67749;SDS011;54550;48.838;8.828;2023-08-12T15:08:54;14.80;;;3.37;;
67749;SDS011;54550;48.838;8.828;2023-08-12T15:11:19;4.70;;;3.10;;
67749;SDS011;54550;48.838;8.828;2023-08-12T15:13:45;6.53;;;3.47;;
67749;SDS011;54550;48.838;8.828;2023-08-12T15:16:12;11.60;;;3.60;;
67749;SDS011;54550;48.838;8.828;2023-08-12T15:18:37;6.57;;;3.67;;
67749;SDS011;54550;48.838;8.828;2023-08-12T15:21:03;9.80;;;4.23;;
67749;SDS011;54550;48.838;8.828;2023-08-12T15:23:29;6.83;;;3.43;;
67749;SDS011;54550;48.838;8.828;2023-08-12T15:25:55;9.13;;;3.70;;
67749;SDS011;54550;48.838;8.828;2023-08-12T15:28:21;5.10;;;4.57;;
67749;SDS011;54550;48.838;8.828;2023-08-12T15:30:49;7.53;;;4.47;;